Lake Levels
Share |
Lake Levels
LAKES RIVERS MARINAS NEWS HOUSES EVENTS MAPS
1,646 Lakes:
Lake Store
Coastal Towns
Discover Rivers

Lake Levels

LakeLevels.info is a national information and alert service for lake water levels in the United States. With a FREE member account you can receive water level alerts by email when the water level reaches your desired alert level.


We currently offer Lake Level information and alerts for 91 lakes and serve 9,355 members with 22,987 alerts.


Sign-up for a Lake Level Alert




Filter By State:
Lake Name Current
Level
Full Pool +/-
Full Pool
Reading
Date - Time
Alan Henry (TX) 2,210.02 2,224.00 -13.98 12/19/2014  9:30:00 AM
Amistad (TX) 1,087.40 1,117.00 -29.60 12/19/2014  10:15:00 PM
Amon Carter (TX) 912.08 920.00 -7.92 12/19/2014  12:00:00 AM
Aquilla (TX) 534.87 537.50 -2.63 12/19/2014  8:30:00 PM
Arlington (TX) 541.07 550.00 -8.93 12/19/2014  12:00:00 AM
Arrowhead (TX) 906.60 926.00 -19.40 12/19/2014  12:00:00 AM
Athens (TX) 438.43 440.00 -1.57 12/19/2014  3:30:00 PM
Austin (TX) 492.09 492.80 -0.71 12/19/2014  10:15:00 AM
Bardwell (TX) 418.51 421.00 -2.49 12/19/2014  11:30:00 PM
Belton (TX) 581.60 594.00 -12.40 12/19/2014  11:00:00 PM
Benbrook (TX) 685.98 694.00 -8.02 12/19/2014  12:00:00 AM
Bob Sandlin (TX) 334.76 337.50 -2.74 12/19/2014  10:43:00 AM
Bonham (TX) 561.80 565.00 -3.20 12/19/2014  9:00:00 PM
Brady Creek (TX) 1,726.82 1,743.00 -16.18 12/19/2014  11:45:00 PM
Bridgeport (TX) 811.94 836.00 -24.06 12/19/2014  8:00:00 PM
Brownwood (TX) 1,412.22 1,425.00 -12.78 12/19/2014  9:30:00 PM
Buchanan (TX) 986.52 1,020.50 -33.98 12/19/2014  10:15:00 AM
Caddo (LA TX) 169.00 168.50 0.50 12/19/2014  8:00:00 AM
Canyon (TX) 896.85 909.00 -12.15 12/19/2014  10:15:00 PM
Cedar Creek (TX) 315.88 ??? 12/19/2014  11:45:00 PM
Champion Creek (TX) 2,035.15 2,083.00 -47.85 12/19/2014  9:38:00 AM
Cherokee (TX) 278.10 280.00 -1.90 12/18/2014  7:15:00 AM
Choke Canyon (TX) 192.42 220.50 -28.08 12/19/2014  7:30:00 AM
Cisco (TX) 1,502.36 1,520.00 -17.64 12/20/2014  12:30:00 AM
Coleman (TX) 1,698.44 1,718.00 -19.56 12/19/2014  3:30:00 PM
Coleto Creek (TX) 93.09 98.28 -5.19 12/19/2014  10:00:00 PM
Colorado City (TX) 2,047.25 2,070.20 -22.95 12/19/2014  9:38:00 AM
Conroe (TX) 200.71 201.00 -0.29 12/19/2014  10:45:00 PM
Corpus Christi (TX) 85.98 94.00 -8.02 12/19/2014  9:26:00 AM
E. V. Spence (TX) 1,825.18 1,898.00 -72.82 12/19/2014  9:00:00 PM
Eagle Mountain (TX) 638.68 649.00 -10.32 12/19/2014  10:45:00 PM
Falcon (TX) 272.70 301.20 -28.50 12/19/2014  10:15:00 AM
Fork (TX) 395.58 403.00 -7.42 12/19/2014  11:30:00 PM
Georgetown (TX) 778.32 791.00 -12.68 12/19/2014  11:00:00 PM
Graham (TX) 1,060.54 1,075.00 -14.46 12/19/2014  10:00:00 PM
Granbury (TX) 682.58 693.00 -10.42 12/19/2014  8:30:00 PM
Granger (TX) 504.53 504.00 0.53 12/19/2014  11:00:00 PM
Grapevine (TX) 522.44 535.00 -12.56 12/19/2014  7:45:00 PM
Hords Creek (TX) 1,886.11 1,900.00 -13.89 12/19/2014  9:30:00 PM
Houston (TX) 42.56 41.70 0.86 12/19/2014  11:30:00 PM
Hubbard Creek (TX) 1,153.84 1,183.00 -29.16 12/19/2014  6:15:00 PM
Hubert M Moss (TX) 710.97 715.00 -4.03 12/19/2014  11:15:00 PM
Inks (TX) 887.04 886.90 0.14 12/19/2014  9:00:00 PM
Jacksonville (TX) 421.56 422.00 -0.44 12/19/2014  10:43:00 AM
JB Thomas (TX) 2,239.37 2,258.00 -18.63 12/19/2014  5:45:00 PM
Jim Chapman (TX) 427.39 440.00 -12.61 12/19/2014  10:43:00 AM
Joe Pool (TX) 520.00 522.00 -2.00 12/19/2014  11:00:00 PM
Lake O' the Pines (TX) 227.95 228.50 -0.55 12/19/2014  10:43:00 AM
Lavon (TX) 479.12 492.00 -12.88 12/19/2014  1:00:00 PM
Leon (TX) 1,367.38 ??? 12/19/2014  8:45:00 PM
Lewisville (TX) 514.50 522.00 -7.50 12/19/2014  9:30:00 AM
Limestone (TX) 360.82 363.00 -2.18 12/19/2014  10:45:00 PM
Livingston (TX) 131.28 131.00 0.28 12/19/2014  11:15:00 PM
Lyndon B. Johnson (TX) 824.61 825.00 -0.39 12/19/2014  10:15:00 AM
MacKenzie (TX) 3,009.67 3,100.00 -90.33 12/19/2014  10:30:00 AM
Marble Falls (TX) 736.32 737.00 -0.68 12/19/2014  10:15:00 AM
Martin Creek (TX) 304.14 306.00 -1.86 12/19/2014  9:30:00 PM
Medina (TX) 974.82 1,062.00 -87.18 12/19/2014  10:00:00 PM
Meredith (TX) 2,857.60 2,941.00 -83.40 12/19/2014  11:30:00 PM
Mexia (TX) 447.73 448.30 -0.57 12/19/2014  10:15:00 PM
Mineral Wells (TX) 855.03 863.00 -7.97 12/20/2014  3:30:00 AM
Moss Creek (TX) 2,327.62 2,337.00 -9.38 12/19/2014  11:45:00 PM
Murvaul (TX) 265.28 265.50 -0.22 12/19/2014  10:43:00 AM
Nacogdoches (TX) 278.50 279.00 -0.50 12/19/2014  10:43:00 AM
Natural Dam Salt (TX) 2,447.33 2,457.00 -9.67 12/19/2014  9:38:00 AM
Nocona (TX) 813.31 827.00 -13.69 12/19/2014  3:00:00 PM
O.H. Ivie (TX) 1,508.86 1,551.50 -42.64 12/19/2014  10:15:00 PM
Palestine (TX) 344.39 345.00 -0.61 12/19/2014  10:43:00 AM
Palo Pinto (TX) 847.62 867.00 -19.38 12/19/2014  8:15:00 PM
Pat Cleburne (TX) 727.44 733.60 -6.16 12/19/2014  11:00:00 PM
Pat Mayse (TX) 449.15 451.00 -1.85 12/19/2014  10:43:00 AM
Possum Kingdom (TX) 985.31 1,000.00 -14.69 12/19/2014  9:07:00 AM
Proctor (TX) 1,149.39 1,162.00 -12.61 12/19/2014  9:30:00 PM
Ray Hubbard (TX) 425.14 435.50 -10.36 12/19/2014  6:30:00 PM
Ray Roberts (TX) 624.50 632.50 -8.00 12/19/2014  5:15:00 PM
Red Bluff (TX) 2,824.48 2,827.13 -2.65 12/19/2014  9:38:00 AM
Richland Chambers (TX) 304.44 315.00 -10.56 12/19/2014  9:07:00 AM
Sam Rayburn (TX) 161.39 164.40 -3.01 12/19/2014  10:00:00 PM
Somerville (TX) 237.68 238.00 -0.32 12/19/2014  10:00:00 PM
Tawakoni (TX) 425.52 437.50 -11.98 12/19/2014  7:30:00 PM
Texana (TX) 39.68 44.00 -4.32 12/19/2014  11:31:00 PM
Texoma (TX) 611.42 617.00 -5.58 12/19/2014  11:00:00 PM
Toledo Bend (TX LA) 168.36 172.00 -3.64 12/19/2014  11:30:00 PM
Travis (TX) 623.60 681.00 -57.40 12/19/2014  11:00:00 PM
Twin Buttes (TX) 1,891.70 1,940.00 -48.30 12/19/2014  12:00:00 AM
Tyler (TX) 374.86 375.50 -0.64 12/19/2014  10:43:00 AM
Waco (TX) 458.92 462.00 -3.08 12/19/2014  8:15:00 AM
White River (TX) 2,342.99 ??? 12/19/2014  8:15:00 PM
Whitney (TX) 522.38 533.00 -10.62 12/19/2014  11:15:00 PM
Worth (TX) 590.47 594.00 -3.53 12/19/2014  11:00:00 PM
Wright Patman (TX) 223.51 220.60 2.91 12/19/2014  10:43:00 AM


Current Daily Streamflow Conditions
High
90th percentile
75th - 89th percentile
25th - 74th percentile
10th - 24th percentile
10th percentile
Low
Not ranked

The colored dots on this map depict streamflow conditions as a percentile, which is computed from the period of record for the current day of the year. Only stations with at least 30 years of record are used. The gray circles indicate other stations that were not ranked in percentiles either because they have fewer than 30 years of record or because they report parameters other than streamflow. Some stations, for example, measure stage only.
TX Daily Streamflow Conditions



U.S. Drought Monitor